sensor_id;sensor_type;location;lat;lon;timestamp;P1;durP1;ratioP1;P2;durP2;ratioP2
8650;SDS011;4363;52.346;14.516;2023-12-22T00:01:35;470.90;;;170.17;;
8650;SDS011;4363;52.346;14.516;2023-12-22T00:04:01;487.30;;;174.40;;
8650;SDS011;4363;52.346;14.516;2023-12-22T00:06:27;453.10;;;162.60;;
8650;SDS011;4363;52.346;14.516;2023-12-22T00:08:53;455.10;;;166.33;;
8650;SDS011;4363;52.346;14.516;2023-12-22T00:11:19;406.83;;;148.53;;
8650;SDS011;4363;52.346;14.516;2023-12-22T00:13:45;390.20;;;149.63;;
8650;SDS011;4363;52.346;14.516;2023-12-22T00:16:10;405.50;;;149.50;;
8650;SDS011;4363;52.346;14.516;2023-12-22T00:18:37;411.77;;;152.83;;
8650;SDS011;4363;52.346;14.516;2023-12-22T00:21:03;493.20;;;181.87;;
8650;SDS011;4363;52.346;14.516;2023-12-22T00:23:29;431.37;;;158.37;;
8650;SDS011;4363;52.346;14.516;2023-12-22T00:25:57;433.30;;;162.47;;
8650;SDS011;4363;52.346;14.516;2023-12-22T00:28:23;402.07;;;148.53;;
8650;SDS011;4363;52.346;14.516;2023-12-22T00:30:49;427.97;;;159.60;;
8650;SDS011;4363;52.346;14.516;2023-12-22T00:33:15;445.57;;;169.83;;
8650;SDS011;4363;52.346;14.516;2023-12-22T00:35:41;413.27;;;150.37;;
8650;SDS011;4363;52.346;14.516;2023-12-22T00:38:07;458.73;;;169.57;;
8650;SDS011;4363;52.346;14.516;2023-12-22T00:40:33;406.53;;;143.63;;
8650;SDS011;4363;52.346;14.516;2023-12-22T00:42:59;443.83;;;166.20;;
8650;SDS011;4363;52.346;14.516;2023-12-22T00:45:25;411.07;;;148.47;;
8650;SDS011;4363;52.346;14.516;2023-12-22T00:47:51;427.07;;;157.43;;
8650;SDS011;4363;52.346;14.516;2023-12-22T00:50:17;405.77;;;146.50;;
8650;SDS011;4363;52.346;14.516;2023-12-22T00:52:43;411.77;;;152.77;;
8650;SDS011;4363;52.346;14.516;2023-12-22T00:55:09;432.10;;;160.60;;
8650;SDS011;4363;52.346;14.516;2023-12-22T00:57:35;405.23;;;147.77;;
8650;SDS011;4363;52.346;14.516;2023-12-22T01:00:01;468.37;;;174.87;;
8650;SDS011;4363;52.346;14.516;2023-12-22T01:02:29;435.27;;;156.63;;
8650;SDS011;4363;52.346;14.516;2023-12-22T01:04:55;424.73;;;150.97;;
8650;SDS011;4363;52.346;14.516;2023-12-22T01:07:21;420.53;;;154.23;;
8650;SDS011;4363;52.346;14.516;2023-12-22T01:09:47;408.93;;;151.40;;
8650;SDS011;4363;52.346;14.516;2023-12-22T01:12:13;461.67;;;170.03;;
8650;SDS011;4363;52.346;14.516;2023-12-22T01:14:39;453.63;;;166.90;;
8650;SDS011;4363;52.346;14.516;2023-12-22T01:17:05;463.63;;;171.63;;
8650;SDS011;4363;52.346;14.516;2023-12-22T01:19:32;439.67;;;162.67;;
8650;SDS011;4363;52.346;14.516;2023-12-22T01:21:58;421.20;;;156.60;;
8650;SDS011;4363;52.346;14.516;2023-12-22T01:24:24;434.23;;;162.67;;
8650;SDS011;4363;52.346;14.516;2023-12-22T01:26:50;588.97;;;232.27;;
8650;SDS011;4363;52.346;14.516;2023-12-22T01:29:16;443.37;;;165.90;;
8650;SDS011;4363;52.346;14.516;2023-12-22T01:31:42;395.40;;;146.53;;
8650;SDS011;4363;52.346;14.516;2023-12-22T01:34:08;426.73;;;155.70;;
8650;SDS011;4363;52.346;14.516;2023-12-22T01:36:35;431.27;;;157.07;;
8650;SDS011;4363;52.346;14.516;2023-12-22T01:39:01;449.53;;;166.70;;
8650;SDS011;4363;52.346;14.516;2023-12-22T01:41:27;423.30;;;155.03;;
8650;SDS011;4363;52.346;14.516;2023-12-22T01:43:53;421.60;;;154.13;;
8650;SDS011;4363;52.346;14.516;2023-12-22T01:46:20;457.57;;;167.20;;
8650;SDS011;4363;52.346;14.516;2023-12-22T01:48:46;404.90;;;146.73;;
8650;SDS011;4363;52.346;14.516;2023-12-22T01:51:12;419.40;;;151.77;;
8650;SDS011;4363;52.346;14.516;2023-12-22T01:53:38;411.93;;;150.07;;
8650;SDS011;4363;52.346;14.516;2023-12-22T01:56:04;419.90;;;157.43;;
8650;SDS011;4363;52.346;14.516;2023-12-22T01:58:30;431.00;;;159.40;;
8650;SDS011;4363;52.346;14.516;2023-12-22T02:00:58;427.50;;;157.90;;
8650;SDS011;4363;52.346;14.516;2023-12-22T02:03:24;425.27;;;157.00;;
8650;SDS011;4363;52.346;14.516;2023-12-22T02:05:50;429.40;;;157.47;;
8650;SDS011;4363;52.346;14.516;2023-12-22T02:08:19;442.10;;;163.67;;
8650;SDS011;4363;52.346;14.516;2023-12-22T02:10:47;429.80;;;156.70;;
8650;SDS011;4363;52.346;14.516;2023-12-22T02:13:13;419.60;;;152.77;;
8650;SDS011;4363;52.346;14.516;2023-12-22T02:15:39;437.37;;;160.57;;
8650;SDS011;4363;52.346;14.516;2023-12-22T02:18:12;458.67;;;168.43;;
8650;SDS011;4363;52.346;14.516;2023-12-22T02:20:40;405.57;;;146.87;;
8650;SDS011;4363;52.346;14.516;2023-12-22T02:26:15;401.97;;;145.93;;
8650;SDS011;4363;52.346;14.516;2023-12-22T02:28:43;436.50;;;159.23;;
8650;SDS011;4363;52.346;14.516;2023-12-22T02:31:14;410.20;;;148.83;;
8650;SDS011;4363;52.346;14.516;2023-12-22T02:33:43;419.70;;;156.20;;
8650;SDS011;4363;52.346;14.516;2023-12-22T02:36:09;451.87;;;167.67;;
8650;SDS011;4363;52.346;14.516;2023-12-22T02:38:37;443.07;;;167.43;;
8650;SDS011;4363;52.346;14.516;2023-12-22T02:41:03;408.37;;;150.27;;
8650;SDS011;4363;52.346;14.516;2023-12-22T02:43:30;404.27;;;146.10;;
8650;SDS011;4363;52.346;14.516;2023-12-22T02:45:56;428.27;;;155.97;;
8650;SDS011;4363;52.346;14.516;2023-12-22T02:48:22;460.03;;;168.87;;
8650;SDS011;4363;52.346;14.516;2023-12-22T02:50:48;432.67;;;154.57;;
8650;SDS011;4363;52.346;14.516;2023-12-22T02:53:14;443.70;;;163.73;;
8650;SDS011;4363;52.346;14.516;2023-12-22T02:55:40;410.67;;;151.53;;
8650;SDS011;4363;52.346;14.516;2023-12-22T02:58:06;419.20;;;155.30;;
8650;SDS011;4363;52.346;14.516;2023-12-22T03:00:32;405.90;;;150.13;;
8650;SDS011;4363;52.346;14.516;2023-12-22T03:02:58;437.00;;;167.07;;
8650;SDS011;4363;52.346;14.516;2023-12-22T03:05:24;473.47;;;173.97;;
8650;SDS011;4363;52.346;14.516;2023-12-22T03:07:50;417.37;;;150.63;;
8650;SDS011;4363;52.346;14.516;2023-12-22T03:10:16;424.07;;;155.43;;
8650;SDS011;4363;52.346;14.516;2023-12-22T03:12:42;395.50;;;146.23;;
8650;SDS011;4363;52.346;14.516;2023-12-22T03:15:08;465.03;;;180.70;;
8650;SDS011;4363;52.346;14.516;2023-12-22T03:17:34;390.90;;;146.53;;
8650;SDS011;4363;52.346;14.516;2023-12-22T03:20:00;401.20;;;149.30;;
8650;SDS011;4363;52.346;14.516;2023-12-22T03:22:26;400.80;;;149.47;;
8650;SDS011;4363;52.346;14.516;2023-12-22T03:24:52;436.97;;;163.57;;
8650;SDS011;4363;52.346;14.516;2023-12-22T03:27:18;413.67;;;154.47;;
8650;SDS011;4363;52.346;14.516;2023-12-22T03:29:45;423.43;;;157.23;;
8650;SDS011;4363;52.346;14.516;2023-12-22T03:32:11;411.07;;;153.43;;
8650;SDS011;4363;52.346;14.516;2023-12-22T03:34:37;408.20;;;151.67;;
8650;SDS011;4363;52.346;14.516;2023-12-22T03:37:03;413.87;;;153.70;;
8650;SDS011;4363;52.346;14.516;2023-12-22T03:39:29;446.77;;;169.57;;
8650;SDS011;4363;52.346;14.516;2023-12-22T03:41:55;414.50;;;152.43;;
8650;SDS011;4363;52.346;14.516;2023-12-22T03:44:21;412.87;;;151.13;;
8650;SDS011;4363;52.346;14.516;2023-12-22T03:46:47;424.70;;;160.67;;
8650;SDS011;4363;52.346;14.516;2023-12-22T03:49:13;403.57;;;154.27;;
8650;SDS011;4363;52.346;14.516;2023-12-22T03:51:39;409.30;;;154.47;;
8650;SDS011;4363;52.346;14.516;2023-12-22T03:54:06;465.73;;;181.23;;
8650;SDS011;4363;52.346;14.516;2023-12-22T03:56:32;394.40;;;144.83;;
8650;SDS011;4363;52.346;14.516;2023-12-22T03:58:58;434.67;;;167.07;;
8650;SDS011;4363;52.346;14.516;2023-12-22T04:01:24;416.10;;;154.10;;
8650;SDS011;4363;52.346;14.516;2023-12-22T04:03:50;444.67;;;169.87;;
8650;SDS011;4363;52.346;14.516;2023-12-22T04:06:16;468.57;;;178.57;;
8650;SDS011;4363;52.346;14.516;2023-12-22T04:08:42;397.13;;;146.20;;
8650;SDS011;4363;52.346;14.516;2023-12-22T04:11:08;399.20;;;146.57;;
8650;SDS011;4363;52.346;14.516;2023-12-22T04:13:34;406.43;;;151.57;;
8650;SDS011;4363;52.346;14.516;2023-12-22T04:16:00;396.73;;;149.43;;
8650;SDS011;4363;52.346;14.516;2023-12-22T04:18:29;408.77;;;155.07;;
8650;SDS011;4363;52.346;14.516;2023-12-22T04:20:55;430.87;;;164.90;;
8650;SDS011;4363;52.346;14.516;2023-12-22T04:23:21;413.57;;;153.63;;
8650;SDS011;4363;52.346;14.516;2023-12-22T04:25:47;371.17;;;158.63;;
8650;SDS011;4363;52.346;14.516;2023-12-22T04:28:13;372.97;;;165.33;;
8650;SDS011;4363;52.346;14.516;2023-12-22T04:30:39;368.20;;;158.10;;
8650;SDS011;4363;52.346;14.516;2023-12-22T04:33:05;395.77;;;173.70;;
8650;SDS011;4363;52.346;14.516;2023-12-22T04:35:31;371.20;;;159.43;;
8650;SDS011;4363;52.346;14.516;2023-12-22T04:37:57;382.00;;;163.97;;
8650;SDS011;4363;52.346;14.516;2023-12-22T04:40:23;418.17;;;190.87;;
8650;SDS011;4363;52.346;14.516;2023-12-22T04:42:49;410.67;;;182.13;;
8650;SDS011;4363;52.346;14.516;2023-12-22T04:45:15;403.40;;;182.23;;
8650;SDS011;4363;52.346;14.516;2023-12-22T04:47:42;367.83;;;153.60;;
8650;SDS011;4363;52.346;14.516;2023-12-22T04:50:08;383.43;;;166.90;;
8650;SDS011;4363;52.346;14.516;2023-12-22T04:52:34;374.37;;;161.50;;
8650;SDS011;4363;52.346;14.516;2023-12-22T04:55:00;380.03;;;163.87;;
8650;SDS011;4363;52.346;14.516;2023-12-22T04:57:26;397.13;;;173.90;;
8650;SDS011;4363;52.346;14.516;2023-12-22T04:59:52;386.50;;;168.40;;
8650;SDS011;4363;52.346;14.516;2023-12-22T05:02:18;390.97;;;172.27;;
8650;SDS011;4363;52.346;14.516;2023-12-22T05:04:44;371.50;;;159.53;;
8650;SDS011;4363;52.346;14.516;2023-12-22T05:07:10;380.33;;;162.23;;
8650;SDS011;4363;52.346;14.516;2023-12-22T05:09:36;390.00;;;174.00;;
8650;SDS011;4363;52.346;14.516;2023-12-22T05:12:01;369.77;;;157.77;;
8650;SDS011;4363;52.346;14.516;2023-12-22T05:14:27;430.60;;;187.93;;
8650;SDS011;4363;52.346;14.516;2023-12-22T05:16:53;383.77;;;162.70;;
8650;SDS011;4363;52.346;14.516;2023-12-22T05:19:21;426.37;;;193.70;;
8650;SDS011;4363;52.346;14.516;2023-12-22T05:21:47;385.03;;;163.07;;
8650;SDS011;4363;52.346;14.516;2023-12-22T05:24:14;389.23;;;170.37;;
8650;SDS011;4363;52.346;14.516;2023-12-22T05:26:40;369.87;;;156.90;;
8650;SDS011;4363;52.346;14.516;2023-12-22T05:29:07;404.73;;;174.00;;
8650;SDS011;4363;52.346;14.516;2023-12-22T05:31:33;378.87;;;163.67;;
8650;SDS011;4363;52.346;14.516;2023-12-22T05:33:59;382.83;;;161.77;;
8650;SDS011;4363;52.346;14.516;2023-12-22T05:36:25;393.47;;;170.53;;
8650;SDS011;4363;52.346;14.516;2023-12-22T05:38:51;418.77;;;183.13;;
8650;SDS011;4363;52.346;14.516;2023-12-22T05:41:17;392.47;;;167.57;;
8650;SDS011;4363;52.346;14.516;2023-12-22T05:43:43;406.97;;;173.97;;
8650;SDS011;4363;52.346;14.516;2023-12-22T05:46:09;359.40;;;151.00;;
8650;SDS011;4363;52.346;14.516;2023-12-22T05:48:36;389.00;;;169.03;;
8650;SDS011;4363;52.346;14.516;2023-12-22T05:51:02;363.47;;;152.10;;
8650;SDS011;4363;52.346;14.516;2023-12-22T05:53:28;384.83;;;162.87;;
8650;SDS011;4363;52.346;14.516;2023-12-22T05:55:54;379.50;;;160.57;;
8650;SDS011;4363;52.346;14.516;2023-12-22T05:58:20;415.67;;;182.33;;
8650;SDS011;4363;52.346;14.516;2023-12-22T06:00:46;387.43;;;161.63;;
8650;SDS011;4363;52.346;14.516;2023-12-22T06:03:12;380.57;;;155.40;;
8650;SDS011;4363;52.346;14.516;2023-12-22T06:05:39;366.90;;;150.67;;
8650;SDS011;4363;52.346;14.516;2023-12-22T06:08:05;385.40;;;163.73;;
8650;SDS011;4363;52.346;14.516;2023-12-22T06:10:31;453.70;;;200.20;;
8650;SDS011;4363;52.346;14.516;2023-12-22T06:12:57;401.00;;;170.33;;
8650;SDS011;4363;52.346;14.516;2023-12-22T06:15:23;449.10;;;193.43;;
8650;SDS011;4363;52.346;14.516;2023-12-22T06:17:49;410.73;;;174.67;;
8650;SDS011;4363;52.346;14.516;2023-12-22T06:20:15;380.23;;;158.27;;
8650;SDS011;4363;52.346;14.516;2023-12-22T06:22:41;382.00;;;161.30;;
8650;SDS011;4363;52.346;14.516;2023-12-22T06:25:07;395.63;;;161.87;;
8650;SDS011;4363;52.346;14.516;2023-12-22T06:27:34;419.73;;;184.43;;
8650;SDS011;4363;52.346;14.516;2023-12-22T06:30:00;372.90;;;156.20;;
8650;SDS011;4363;52.346;14.516;2023-12-22T06:32:25;407.43;;;178.47;;
8650;SDS011;4363;52.346;14.516;2023-12-22T06:34:51;375.90;;;158.47;;
8650;SDS011;4363;52.346;14.516;2023-12-22T06:37:16;401.50;;;171.53;;
8650;SDS011;4363;52.346;14.516;2023-12-22T06:39:42;379.77;;;161.23;;
8650;SDS011;4363;52.346;14.516;2023-12-22T06:42:07;355.30;;;150.23;;
8650;SDS011;4363;52.346;14.516;2023-12-22T06:44:36;380.73;;;167.37;;
8650;SDS011;4363;52.346;14.516;2023-12-22T06:47:02;377.93;;;164.10;;
8650;SDS011;4363;52.346;14.516;2023-12-22T06:49:28;390.63;;;170.93;;
8650;SDS011;4363;52.346;14.516;2023-12-22T06:51:53;434.13;;;193.27;;
8650;SDS011;4363;52.346;14.516;2023-12-22T06:54:19;421.27;;;183.27;;
8650;SDS011;4363;52.346;14.516;2023-12-22T06:56:44;391.93;;;163.30;;
8650;SDS011;4363;52.346;14.516;2023-12-22T06:59:10;407.97;;;174.47;;
8650;SDS011;4363;52.346;14.516;2023-12-22T07:01:37;389.43;;;164.37;;
8650;SDS011;4363;52.346;14.516;2023-12-22T07:04:03;376.67;;;157.23;;
8650;SDS011;4363;52.346;14.516;2023-12-22T07:06:30;443.60;;;193.20;;
8650;SDS011;4363;52.346;14.516;2023-12-22T07:11:44;413.47;;;174.77;;
8650;SDS011;4363;52.346;14.516;2023-12-22T07:14:17;405.13;;;171.43;;
8650;SDS011;4363;52.346;14.516;2023-12-22T07:16:43;394.23;;;166.60;;
8650;SDS011;4363;52.346;14.516;2023-12-22T07:19:09;369.30;;;156.27;;
8650;SDS011;4363;52.346;14.516;2023-12-22T07:21:37;413.90;;;180.40;;
8650;SDS011;4363;52.346;14.516;2023-12-22T07:24:04;376.80;;;155.50;;
8650;SDS011;4363;52.346;14.516;2023-12-22T07:26:30;399.90;;;168.03;;
8650;SDS011;4363;52.346;14.516;2023-12-22T07:28:55;415.27;;;172.27;;
8650;SDS011;4363;52.346;14.516;2023-12-22T07:31:21;333.27;;;139.17;;
8650;SDS011;4363;52.346;14.516;2023-12-22T07:33:47;406.37;;;163.40;;
8650;SDS011;4363;52.346;14.516;2023-12-22T07:36:13;571.27;;;290.80;;
8650;SDS011;4363;52.346;14.516;2023-12-22T07:38:39;406.50;;;177.23;;
8650;SDS011;4363;52.346;14.516;2023-12-22T07:41:05;456.60;;;206.13;;
8650;SDS011;4363;52.346;14.516;2023-12-22T07:43:31;393.53;;;165.00;;
8650;SDS011;4363;52.346;14.516;2023-12-22T07:45:57;421.70;;;179.83;;
8650;SDS011;4363;52.346;14.516;2023-12-22T07:48:23;388.77;;;163.93;;
8650;SDS011;4363;52.346;14.516;2023-12-22T07:50:49;445.33;;;192.40;;
8650;SDS011;4363;52.346;14.516;2023-12-22T07:53:15;415.20;;;178.80;;
8650;SDS011;4363;52.346;14.516;2023-12-22T07:55:42;446.10;;;202.17;;
8650;SDS011;4363;52.346;14.516;2023-12-22T07:58:09;409.43;;;172.93;;
8650;SDS011;4363;52.346;14.516;2023-12-22T08:00:35;412.53;;;179.67;;
8650;SDS011;4363;52.346;14.516;2023-12-22T08:03:02;422.27;;;185.33;;
8650;SDS011;4363;52.346;14.516;2023-12-22T08:05:27;399.73;;;168.70;;
8650;SDS011;4363;52.346;14.516;2023-12-22T08:07:54;451.10;;;196.13;;
8650;SDS011;4363;52.346;14.516;2023-12-22T08:10:20;436.53;;;188.33;;
8650;SDS011;4363;52.346;14.516;2023-12-22T08:12:46;422.83;;;183.13;;
8650;SDS011;4363;52.346;14.516;2023-12-22T08:15:12;374.20;;;157.07;;
8650;SDS011;4363;52.346;14.516;2023-12-22T08:17:48;444.90;;;200.17;;
8650;SDS011;4363;52.346;14.516;2023-12-22T08:20:18;398.30;;;167.40;;
8650;SDS011;4363;52.346;14.516;2023-12-22T08:22:44;415.37;;;176.70;;
8650;SDS011;4363;52.346;14.516;2023-12-22T08:25:10;356.10;;;147.63;;
8650;SDS011;4363;52.346;14.516;2023-12-22T08:27:36;429.87;;;180.67;;
8650;SDS011;4363;52.346;14.516;2023-12-22T08:30:02;369.00;;;151.17;;
8650;SDS011;4363;52.346;14.516;2023-12-22T08:32:28;401.80;;;174.20;;
8650;SDS011;4363;52.346;14.516;2023-12-22T08:34:54;388.40;;;164.80;;
8650;SDS011;4363;52.346;14.516;2023-12-22T08:37:20;389.07;;;165.67;;
8650;SDS011;4363;52.346;14.516;2023-12-22T08:39:46;432.70;;;192.00;;
8650;SDS011;4363;52.346;14.516;2023-12-22T08:42:12;413.40;;;179.27;;
8650;SDS011;4363;52.346;14.516;2023-12-22T08:44:38;408.27;;;175.93;;
8650;SDS011;4363;52.346;14.516;2023-12-22T08:47:04;403.10;;;170.87;;
8650;SDS011;4363;52.346;14.516;2023-12-22T08:49:30;388.83;;;162.97;;
8650;SDS011;4363;52.346;14.516;2023-12-22T08:51:56;362.83;;;147.90;;
8650;SDS011;4363;52.346;14.516;2023-12-22T08:54:22;465.00;;;203.47;;
8650;SDS011;4363;52.346;14.516;2023-12-22T08:56:48;422.00;;;183.23;;
8650;SDS011;4363;52.346;14.516;2023-12-22T08:59:14;391.60;;;161.80;;
8650;SDS011;4363;52.346;14.516;2023-12-22T09:01:40;440.50;;;187.67;;
8650;SDS011;4363;52.346;14.516;2023-12-22T09:04:07;428.33;;;182.90;;
8650;SDS011;4363;52.346;14.516;2023-12-22T09:06:33;443.90;;;188.20;;
8650;SDS011;4363;52.346;14.516;2023-12-22T09:08:58;379.50;;;154.97;;
8650;SDS011;4363;52.346;14.516;2023-12-22T09:11:24;398.97;;;169.10;;
8650;SDS011;4363;52.346;14.516;2023-12-22T09:13:50;432.70;;;183.83;;
8650;SDS011;4363;52.346;14.516;2023-12-22T09:16:22;401.80;;;169.07;;
8650;SDS011;4363;52.346;14.516;2023-12-22T09:18:49;433.37;;;186.67;;
8650;SDS011;4363;52.346;14.516;2023-12-22T09:21:16;385.67;;;159.57;;
8650;SDS011;4363;52.346;14.516;2023-12-22T09:23:45;422.00;;;175.80;;
8650;SDS011;4363;52.346;14.516;2023-12-22T09:26:12;475.43;;;214.57;;
8650;SDS011;4363;52.346;14.516;2023-12-22T09:28:41;404.73;;;171.40;;
8650;SDS011;4363;52.346;14.516;2023-12-22T09:31:07;365.40;;;148.10;;
8650;SDS011;4363;52.346;14.516;2023-12-22T09:33:33;410.20;;;174.03;;
8650;SDS011;4363;52.346;14.516;2023-12-22T09:35:59;415.73;;;176.80;;
8650;SDS011;4363;52.346;14.516;2023-12-22T09:38:25;424.37;;;185.23;;
8650;SDS011;4363;52.346;14.516;2023-12-22T09:40:52;427.23;;;183.20;;
8650;SDS011;4363;52.346;14.516;2023-12-22T09:43:19;407.13;;;172.27;;
8650;SDS011;4363;52.346;14.516;2023-12-22T09:45:45;423.60;;;180.30;;
8650;SDS011;4363;52.346;14.516;2023-12-22T09:48:12;372.07;;;153.97;;
8650;SDS011;4363;52.346;14.516;2023-12-22T09:50:42;349.73;;;144.47;;
8650;SDS011;4363;52.346;14.516;2023-12-22T09:53:08;389.37;;;162.73;;
8650;SDS011;4363;52.346;14.516;2023-12-22T09:55:36;404.73;;;170.30;;
8650;SDS011;4363;52.346;14.516;2023-12-22T09:58:04;408.13;;;168.47;;
8650;SDS011;4363;52.346;14.516;2023-12-22T10:00:31;398.93;;;167.87;;
8650;SDS011;4363;52.346;14.516;2023-12-22T10:02:57;494.13;;;225.50;;
8650;SDS011;4363;52.346;14.516;2023-12-22T10:05:23;429.27;;;184.07;;
8650;SDS011;4363;52.346;14.516;2023-12-22T10:07:49;415.80;;;177.60;;
8650;SDS011;4363;52.346;14.516;2023-12-22T10:10:16;430.50;;;184.80;;
8650;SDS011;4363;52.346;14.516;2023-12-22T10:12:44;425.13;;;178.20;;
8650;SDS011;4363;52.346;14.516;2023-12-22T10:15:10;503.40;;;222.07;;
8650;SDS011;4363;52.346;14.516;2023-12-22T10:17:38;422.73;;;176.50;;
8650;SDS011;4363;52.346;14.516;2023-12-22T10:20:04;438.40;;;185.20;;
8650;SDS011;4363;52.346;14.516;2023-12-22T10:22:31;448.43;;;191.20;;
8650;SDS011;4363;52.346;14.516;2023-12-22T10:24:57;391.80;;;147.00;;
8650;SDS011;4363;52.346;14.516;2023-12-22T10:27:23;377.80;;;140.57;;
8650;SDS011;4363;52.346;14.516;2023-12-22T10:29:49;388.80;;;143.50;;
8650;SDS011;4363;52.346;14.516;2023-12-22T10:32:15;375.23;;;138.73;;
8650;SDS011;4363;52.346;14.516;2023-12-22T10:34:42;383.27;;;141.73;;
8650;SDS011;4363;52.346;14.516;2023-12-22T10:37:09;373.33;;;136.93;;
8650;SDS011;4363;52.346;14.516;2023-12-22T10:39:37;377.70;;;139.77;;
8650;SDS011;4363;52.346;14.516;2023-12-22T10:42:04;363.87;;;135.13;;
8650;SDS011;4363;52.346;14.516;2023-12-22T10:44:30;367.43;;;134.53;;
8650;SDS011;4363;52.346;14.516;2023-12-22T10:46:57;385.00;;;142.33;;
8650;SDS011;4363;52.346;14.516;2023-12-22T10:49:24;366.70;;;134.60;;
8650;SDS011;4363;52.346;14.516;2023-12-22T10:51:50;396.00;;;145.03;;
8650;SDS011;4363;52.346;14.516;2023-12-22T10:54:16;373.50;;;136.07;;
8650;SDS011;4363;52.346;14.516;2023-12-22T10:56:42;368.77;;;134.50;;
8650;SDS011;4363;52.346;14.516;2023-12-22T10:59:09;374.20;;;139.47;;
8650;SDS011;4363;52.346;14.516;2023-12-22T11:01:35;361.30;;;132.67;;
8650;SDS011;4363;52.346;14.516;2023-12-22T11:04:05;357.13;;;131.07;;
8650;SDS011;4363;52.346;14.516;2023-12-22T11:06:33;156.13;;;27.87;;
8650;SDS011;4363;52.346;14.516;2023-12-22T11:08:59;161.83;;;26.97;;
8650;SDS011;4363;52.346;14.516;2023-12-22T11:11:27;170.70;;;30.03;;
8650;SDS011;4363;52.346;14.516;2023-12-22T11:13:55;193.97;;;35.70;;
8650;SDS011;4363;52.346;14.516;2023-12-22T11:16:23;175.80;;;30.07;;
8650;SDS011;4363;52.346;14.516;2023-12-22T11:18:51;160.50;;;25.23;;
8650;SDS011;4363;52.346;14.516;2023-12-22T11:21:20;169.07;;;29.20;;
8650;SDS011;4363;52.346;14.516;2023-12-22T11:23:47;161.87;;;27.27;;
8650;SDS011;4363;52.346;14.516;2023-12-22T11:26:16;144.07;;;23.97;;
8650;SDS011;4363;52.346;14.516;2023-12-22T11:28:42;207.97;;;36.73;;
8650;SDS011;4363;52.346;14.516;2023-12-22T11:31:10;213.37;;;38.00;;
8650;SDS011;4363;52.346;14.516;2023-12-22T11:33:37;201.23;;;33.50;;
8650;SDS011;4363;52.346;14.516;2023-12-22T11:36:05;139.07;;;25.37;;
8650;SDS011;4363;52.346;14.516;2023-12-22T11:38:32;161.17;;;28.67;;
8650;SDS011;4363;52.346;14.516;2023-12-22T11:40:59;192.10;;;33.57;;
8650;SDS011;4363;52.346;14.516;2023-12-22T11:43:26;169.63;;;28.80;;
8650;SDS011;4363;52.346;14.516;2023-12-22T11:45:52;207.00;;;34.67;;
8650;SDS011;4363;52.346;14.516;2023-12-22T11:48:18;179.47;;;31.40;;
8650;SDS011;4363;52.346;14.516;2023-12-22T11:50:45;216.70;;;41.13;;
8650;SDS011;4363;52.346;14.516;2023-12-22T11:56:03;208.93;;;47.60;;
8650;SDS011;4363;52.346;14.516;2023-12-22T12:01:08;177.70;;;59.43;;
8650;SDS011;4363;52.346;14.516;2023-12-22T12:03:42;191.93;;;63.77;;
8650;SDS011;4363;52.346;14.516;2023-12-22T12:06:11;227.03;;;64.07;;
8650;SDS011;4363;52.346;14.516;2023-12-22T12:08:40;232.63;;;72.30;;
8650;SDS011;4363;52.346;14.516;2023-12-22T12:11:06;219.57;;;65.83;;
8650;SDS011;4363;52.346;14.516;2023-12-22T12:13:33;198.93;;;55.27;;
8650;SDS011;4363;52.346;14.516;2023-12-22T12:15:59;186.33;;;62.43;;
8650;SDS011;4363;52.346;14.516;2023-12-22T12:18:27;238.80;;;76.33;;
8650;SDS011;4363;52.346;14.516;2023-12-22T12:20:53;222.30;;;79.33;;
8650;SDS011;4363;52.346;14.516;2023-12-22T12:23:19;245.77;;;83.27;;
8650;SDS011;4363;52.346;14.516;2023-12-22T12:25:46;239.13;;;76.47;;
8650;SDS011;4363;52.346;14.516;2023-12-22T12:28:13;252.80;;;76.23;;
8650;SDS011;4363;52.346;14.516;2023-12-22T12:30:41;228.33;;;81.97;;
8650;SDS011;4363;52.346;14.516;2023-12-22T12:33:10;197.83;;;79.23;;
8650;SDS011;4363;52.346;14.516;2023-12-22T12:35:37;230.03;;;91.33;;
8650;SDS011;4363;52.346;14.516;2023-12-22T12:38:04;207.47;;;84.07;;
8650;SDS011;4363;52.346;14.516;2023-12-22T12:40:31;190.00;;;72.00;;
8650;SDS011;4363;52.346;14.516;2023-12-22T12:42:59;203.17;;;73.30;;
8650;SDS011;4363;52.346;14.516;2023-12-22T12:45:25;186.53;;;54.03;;
8650;SDS011;4363;52.346;14.516;2023-12-22T12:47:58;193.67;;;67.70;;
8650;SDS011;4363;52.346;14.516;2023-12-22T12:50:25;204.23;;;79.23;;
8650;SDS011;4363;52.346;14.516;2023-12-22T12:52:51;228.17;;;87.33;;
8650;SDS011;4363;52.346;14.516;2023-12-22T12:55:21;231.93;;;90.13;;
8650;SDS011;4363;52.346;14.516;2023-12-22T12:57:48;235.50;;;88.43;;
8650;SDS011;4363;52.346;14.516;2023-12-22T13:00:16;216.90;;;85.70;;
8650;SDS011;4363;52.346;14.516;2023-12-22T13:03:03;240.10;;;83.87;;
8650;SDS011;4363;52.346;14.516;2023-12-22T13:05:30;224.60;;;84.80;;
8650;SDS011;4363;52.346;14.516;2023-12-22T13:08:12;242.00;;;91.47;;
8650;SDS011;4363;52.346;14.516;2023-12-22T13:10:39;263.97;;;98.47;;
8650;SDS011;4363;52.346;14.516;2023-12-22T13:13:05;199.47;;;69.37;;
8650;SDS011;4363;52.346;14.516;2023-12-22T13:15:31;245.83;;;95.37;;
8650;SDS011;4363;52.346;14.516;2023-12-22T13:17:57;256.77;;;100.60;;
8650;SDS011;4363;52.346;14.516;2023-12-22T13:20:24;241.03;;;93.93;;
8650;SDS011;4363;52.346;14.516;2023-12-22T13:22:50;240.20;;;97.63;;
8650;SDS011;4363;52.346;14.516;2023-12-22T13:25:16;201.63;;;76.77;;
8650;SDS011;4363;52.346;14.516;2023-12-22T13:27:45;241.17;;;97.03;;
8650;SDS011;4363;52.346;14.516;2023-12-22T13:30:33;222.70;;;76.77;;
8650;SDS011;4363;52.346;14.516;2023-12-22T13:33:00;259.20;;;101.87;;
8650;SDS011;4363;52.346;14.516;2023-12-22T13:35:26;183.87;;;62.20;;
8650;SDS011;4363;52.346;14.516;2023-12-22T13:37:53;262.80;;;100.03;;
8650;SDS011;4363;52.346;14.516;2023-12-22T13:40:19;244.17;;;90.20;;
8650;SDS011;4363;52.346;14.516;2023-12-22T13:42:52;272.80;;;104.50;;
8650;SDS011;4363;52.346;14.516;2023-12-22T13:45:19;250.10;;;99.93;;
8650;SDS011;4363;52.346;14.516;2023-12-22T13:47:45;237.90;;;92.03;;
8650;SDS011;4363;52.346;14.516;2023-12-22T13:50:13;233.73;;;83.63;;
8650;SDS011;4363;52.346;14.516;2023-12-22T13:52:40;206.07;;;68.80;;
8650;SDS011;4363;52.346;14.516;2023-12-22T13:55:12;261.13;;;97.50;;
8650;SDS011;4363;52.346;14.516;2023-12-22T13:57:38;238.17;;;88.90;;
8650;SDS011;4363;52.346;14.516;2023-12-22T14:02:46;187.03;;;62.30;;
8650;SDS011;4363;52.346;14.516;2023-12-22T14:05:16;235.33;;;83.43;;
8650;SDS011;4363;52.346;14.516;2023-12-22T14:07:45;201.90;;;66.40;;
8650;SDS011;4363;52.346;14.516;2023-12-22T14:10:11;222.27;;;82.70;;
8650;SDS011;4363;52.346;14.516;2023-12-22T14:12:38;227.00;;;86.83;;
8650;SDS011;4363;52.346;14.516;2023-12-22T14:15:13;231.60;;;92.07;;
8650;SDS011;4363;52.346;14.516;2023-12-22T14:17:39;256.80;;;96.70;;
8650;SDS011;4363;52.346;14.516;2023-12-22T14:20:08;242.73;;;90.57;;
8650;SDS011;4363;52.346;14.516;2023-12-22T14:22:37;222.73;;;92.87;;